sensor_id;sensor_type;location;lat;lon;timestamp;pressure;altitude;pressure_sealevel;temperature;humidity
79129;BME280;68529;43.286;23.360;2023-04-24T00:01:09;98806.69;;;12.05;56.72
79129;BME280;68529;43.286;23.360;2023-04-24T00:03:35;98801.19;;;12.09;56.82
79129;BME280;68529;43.286;23.360;2023-04-24T00:06:01;98810.94;;;12.26;56.55
79129;BME280;68529;43.286;23.360;2023-04-24T00:08:27;98819.09;;;12.39;56.55
79129;BME280;68529;43.286;23.360;2023-04-24T00:10:53;98809.75;;;11.96;57.52
79129;BME280;68529;43.286;23.360;2023-04-24T00:13:18;98824.41;;;11.83;57.59
79129;BME280;68529;43.286;23.360;2023-04-24T00:15:44;98809.59;;;11.99;57.28
79129;BME280;68529;43.286;23.360;2023-04-24T00:18:09;98814.69;;;12.20;57.19
79129;BME280;68529;43.286;23.360;2023-04-24T00:20:35;98823.03;;;12.30;57.10
79129;BME280;68529;43.286;23.360;2023-04-24T00:23:02;98812.22;;;12.36;57.14
79129;BME280;68529;43.286;23.360;2023-04-24T00:25:28;98824.84;;;12.47;57.22
79129;BME280;68529;43.286;23.360;2023-04-24T00:27:53;98817.88;;;12.46;57.16
79129;BME280;68529;43.286;23.360;2023-04-24T00:30:19;98818.81;;;12.45;57.19
79129;BME280;68529;43.286;23.360;2023-04-24T00:32:44;98820.44;;;12.47;57.33
79129;BME280;68529;43.286;23.360;2023-04-24T00:35:10;98818.09;;;12.41;56.94
79129;BME280;68529;43.286;23.360;2023-04-24T00:37:35;98819.00;;;12.40;57.14
79129;BME280;68529;43.286;23.360;2023-04-24T00:40:01;98816.19;;;12.45;57.74
79129;BME280;68529;43.286;23.360;2023-04-24T00:42:27;98807.13;;;12.50;57.42
79129;BME280;68529;43.286;23.360;2023-04-24T00:44:53;98811.75;;;12.45;57.34
79129;BME280;68529;43.286;23.360;2023-04-24T00:47:19;98811.06;;;12.42;57.44
79129;BME280;68529;43.286;23.360;2023-04-24T00:49:44;98802.59;;;12.35;57.61
79129;BME280;68529;43.286;23.360;2023-04-24T00:52:09;98803.66;;;12.31;57.78
79129;BME280;68529;43.286;23.360;2023-04-24T00:54:36;98808.63;;;12.37;57.96
79129;BME280;68529;43.286;23.360;2023-04-24T00:57:04;98809.56;;;12.36;57.69
79129;BME280;68529;43.286;23.360;2023-04-24T00:59:30;98798.41;;;12.48;57.45
79129;BME280;68529;43.286;23.360;2023-04-24T01:01:57;98808.50;;;12.57;57.54
79129;BME280;68529;43.286;23.360;2023-04-24T01:04:23;98804.47;;;12.67;57.06
79129;BME280;68529;43.286;23.360;2023-04-24T01:06:49;98821.16;;;12.68;56.95
79129;BME280;68529;43.286;23.360;2023-04-24T01:09:16;98827.28;;;12.68;57.01
79129;BME280;68529;43.286;23.360;2023-04-24T01:11:42;98823.16;;;12.63;56.89
79129;BME280;68529;43.286;23.360;2023-04-24T01:14:08;98841.47;;;12.66;56.76
79129;BME280;68529;43.286;23.360;2023-04-24T01:16:33;98842.94;;;12.71;56.88
79129;BME280;68529;43.286;23.360;2023-04-24T01:18:59;98856.13;;;12.71;56.83
79129;BME280;68529;43.286;23.360;2023-04-24T01:21:26;98853.53;;;12.53;57.05
79129;BME280;68529;43.286;23.360;2023-04-24T01:23:55;98861.44;;;12.34;57.38
79129;BME280;68529;43.286;23.360;2023-04-24T01:26:22;98873.50;;;12.21;58.14
79129;BME280;68529;43.286;23.360;2023-04-24T01:28:48;98871.06;;;12.35;58.01
79129;BME280;68529;43.286;23.360;2023-04-24T01:31:14;98874.97;;;12.26;57.94
79129;BME280;68529;43.286;23.360;2023-04-24T01:33:41;98880.19;;;12.28;58.23
79129;BME280;68529;43.286;23.360;2023-04-24T01:36:07;98876.31;;;12.35;58.51
79129;BME280;68529;43.286;23.360;2023-04-24T01:38:33;98878.31;;;12.49;58.29
79129;BME280;68529;43.286;23.360;2023-04-24T01:40:59;98878.16;;;12.52;58.10
79129;BME280;68529;43.286;23.360;2023-04-24T01:43:24;98882.91;;;12.62;58.10
79129;BME280;68529;43.286;23.360;2023-04-24T01:45:50;98885.25;;;12.68;58.23
79129;BME280;68529;43.286;23.360;2023-04-24T01:48:15;98889.31;;;12.75;57.97
79129;BME280;68529;43.286;23.360;2023-04-24T01:50:41;98894.16;;;12.66;57.78
79129;BME280;68529;43.286;23.360;2023-04-24T01:53:06;98883.31;;;12.36;58.27
79129;BME280;68529;43.286;23.360;2023-04-24T01:55:32;98887.22;;;12.27;58.81
79129;BME280;68529;43.286;23.360;2023-04-24T01:57:59;98877.25;;;12.34;59.03
79129;BME280;68529;43.286;23.360;2023-04-24T02:00:25;98883.03;;;12.42;58.89
79129;BME280;68529;43.286;23.360;2023-04-24T02:02:50;98882.81;;;12.47;58.83
79129;BME280;68529;43.286;23.360;2023-04-24T02:05:15;98881.94;;;12.46;58.71
79129;BME280;68529;43.286;23.360;2023-04-24T02:07:41;98876.44;;;12.51;58.92
79129;BME280;68529;43.286;23.360;2023-04-24T02:10:07;98879.72;;;12.56;58.58
79129;BME280;68529;43.286;23.360;2023-04-24T02:12:32;98869.25;;;12.54;58.50
79129;BME280;68529;43.286;23.360;2023-04-24T02:14:58;98866.47;;;12.57;58.54
79129;BME280;68529;43.286;23.360;2023-04-24T02:17:23;98861.16;;;12.59;58.55
79129;BME280;68529;43.286;23.360;2023-04-24T02:19:49;98858.41;;;12.60;58.55
79129;BME280;68529;43.286;23.360;2023-04-24T02:22:14;98857.78;;;12.55;58.86
79129;BME280;68529;43.286;23.360;2023-04-24T02:24:40;98864.56;;;12.61;58.89
79129;BME280;68529;43.286;23.360;2023-04-24T02:27:05;98870.69;;;12.61;58.86
79129;BME280;68529;43.286;23.360;2023-04-24T02:29:31;98868.03;;;12.61;58.55
79129;BME280;68529;43.286;23.360;2023-04-24T02:31:57;98862.91;;;12.58;58.55
79129;BME280;68529;43.286;23.360;2023-04-24T02:34:22;98864.22;;;12.50;58.78
79129;BME280;68529;43.286;23.360;2023-04-24T02:36:48;98861.78;;;12.45;58.90
79129;BME280;68529;43.286;23.360;2023-04-24T02:39:14;98864.50;;;12.44;59.06
79129;BME280;68529;43.286;23.360;2023-04-24T02:41:42;98859.38;;;12.41;59.31
79129;BME280;68529;43.286;23.360;2023-04-24T02:44:07;98860.09;;;12.44;59.38
79129;BME280;68529;43.286;23.360;2023-04-24T02:46:33;98859.22;;;12.44;59.22
79129;BME280;68529;43.286;23.360;2023-04-24T02:48:58;98856.50;;;12.45;59.38
79129;BME280;68529;43.286;23.360;2023-04-24T02:51:23;98863.50;;;12.46;59.30
79129;BME280;68529;43.286;23.360;2023-04-24T02:53:49;98863.16;;;12.35;59.40
79129;BME280;68529;43.286;23.360;2023-04-24T02:56:14;98862.44;;;12.32;59.49
79129;BME280;68529;43.286;23.360;2023-04-24T02:58:40;98864.03;;;12.36;59.87
79129;BME280;68529;43.286;23.360;2023-04-24T03:01:05;98859.38;;;12.41;59.66
79129;BME280;68529;43.286;23.360;2023-04-24T03:03:31;98863.50;;;12.46;59.79
79129;BME280;68529;43.286;23.360;2023-04-24T03:05:56;98863.59;;;12.45;59.64
79129;BME280;68529;43.286;23.360;2023-04-24T03:08:22;98869.13;;;12.20;59.90
79129;BME280;68529;43.286;23.360;2023-04-24T03:10:48;98868.97;;;12.06;60.26
79129;BME280;68529;43.286;23.360;2023-04-24T03:13:13;98865.09;;;12.13;60.15
79129;BME280;68529;43.286;23.360;2023-04-24T03:15:39;98866.59;;;12.18;60.29
79129;BME280;68529;43.286;23.360;2023-04-24T03:18:04;98853.78;;;12.30;60.44
79129;BME280;68529;43.286;23.360;2023-04-24T03:20:30;98861.00;;;12.43;60.12
79129;BME280;68529;43.286;23.360;2023-04-24T03:22:55;98860.81;;;12.48;59.95
79129;BME280;68529;43.286;23.360;2023-04-24T03:25:22;98851.97;;;12.49;59.78
79129;BME280;68529;43.286;23.360;2023-04-24T03:27:47;98857.31;;;12.47;59.78
79129;BME280;68529;43.286;23.360;2023-04-24T03:30:13;98854.69;;;12.47;60.08
79129;BME280;68529;43.286;23.360;2023-04-24T03:32:38;98858.00;;;12.51;59.78
79129;BME280;68529;43.286;23.360;2023-04-24T03:35:06;98857.31;;;12.47;59.46
79129;BME280;68529;43.286;23.360;2023-04-24T03:37:32;98856.69;;;12.42;59.97
79129;BME280;68529;43.286;23.360;2023-04-24T03:39:57;98854.97;;;12.41;59.78
79129;BME280;68529;43.286;23.360;2023-04-24T03:42:23;98863.66;;;12.43;59.77
79129;BME280;68529;43.286;23.360;2023-04-24T03:44:48;98854.06;;;12.42;59.90
79129;BME280;68529;43.286;23.360;2023-04-24T03:47:13;98861.97;;;12.42;59.80
79129;BME280;68529;43.286;23.360;2023-04-24T03:49:39;98852.25;;;12.43;60.16
79129;BME280;68529;43.286;23.360;2023-04-24T03:52:04;98852.72;;;12.51;60.11
79129;BME280;68529;43.286;23.360;2023-04-24T03:54:30;98843.00;;;12.53;59.89
79129;BME280;68529;43.286;23.360;2023-04-24T03:56:55;98846.84;;;12.46;59.82
79129;BME280;68529;43.286;23.360;2023-04-24T03:59:20;98850.00;;;12.35;60.15
79129;BME280;68529;43.286;23.360;2023-04-24T04:01:46;98847.34;;;12.35;60.60
79129;BME280;68529;43.286;23.360;2023-04-24T04:04:12;98849.06;;;12.36;60.63
79129;BME280;68529;43.286;23.360;2023-04-24T04:06:43;98856.47;;;12.47;60.73
79129;BME280;68529;43.286;23.360;2023-04-24T04:09:09;98844.53;;;12.57;60.49
79129;BME280;68529;43.286;23.360;2023-04-24T04:11:35;98849.75;;;12.58;60.23
79129;BME280;68529;43.286;23.360;2023-04-24T04:14:01;98845.41;;;12.57;60.07
79129;BME280;68529;43.286;23.360;2023-04-24T04:16:26;98845.34;;;12.59;60.45
79129;BME280;68529;43.286;23.360;2023-04-24T04:18:51;98829.19;;;12.65;60.27
79129;BME280;68529;43.286;23.360;2023-04-24T04:21:17;98829.63;;;12.74;60.30
79129;BME280;68529;43.286;23.360;2023-04-24T04:23:42;98832.81;;;12.81;60.12
79129;BME280;68529;43.286;23.360;2023-04-24T04:26:07;98845.66;;;12.87;59.99
79129;BME280;68529;43.286;23.360;2023-04-24T04:28:33;98835.81;;;12.91;59.45
79129;BME280;68529;43.286;23.360;2023-04-24T04:30:58;98841.94;;;12.91;59.65
79129;BME280;68529;43.286;23.360;2023-04-24T04:33:24;98838.16;;;12.97;59.71
79129;BME280;68529;43.286;23.360;2023-04-24T04:35:51;98831.50;;;12.90;59.58
79129;BME280;68529;43.286;23.360;2023-04-24T04:38:19;98834.50;;;12.82;59.94
79129;BME280;68529;43.286;23.360;2023-04-24T04:40:45;98826.53;;;12.83;60.18
79129;BME280;68529;43.286;23.360;2023-04-24T04:43:11;98831.66;;;12.87;60.11
79129;BME280;68529;43.286;23.360;2023-04-24T04:45:38;98827.84;;;12.75;60.28
79129;BME280;68529;43.286;23.360;2023-04-24T04:48:05;98819.16;;;12.73;60.27
79129;BME280;68529;43.286;23.360;2023-04-24T04:50:32;98825.09;;;12.76;60.48
79129;BME280;68529;43.286;23.360;2023-04-24T04:52:58;98821.47;;;12.79;60.12
79129;BME280;68529;43.286;23.360;2023-04-24T04:55:23;98810.56;;;12.87;60.34
79129;BME280;68529;43.286;23.360;2023-04-24T04:57:48;98809.84;;;13.00;60.21
79129;BME280;68529;43.286;23.360;2023-04-24T05:00:14;98813.91;;;13.07;59.81
79129;BME280;68529;43.286;23.360;2023-04-24T05:02:41;98805.09;;;13.07;60.58
79129;BME280;68529;43.286;23.360;2023-04-24T05:05:07;98798.47;;;13.17;60.22
79129;BME280;68529;43.286;23.360;2023-04-24T05:07:33;98802.09;;;13.31;59.98
79129;BME280;68529;43.286;23.360;2023-04-24T05:09:58;98795.56;;;13.38;59.69
79129;BME280;68529;43.286;23.360;2023-04-24T05:12:24;98794.38;;;13.44;59.42
79129;BME280;68529;43.286;23.360;2023-04-24T05:14:49;98802.75;;;13.52;59.67
79129;BME280;68529;43.286;23.360;2023-04-24T05:17:15;98804.97;;;13.60;59.60
79129;BME280;68529;43.286;23.360;2023-04-24T05:19:40;98817.03;;;13.81;59.60
79129;BME280;68529;43.286;23.360;2023-04-24T05:22:06;98810.72;;;13.99;59.21
79129;BME280;68529;43.286;23.360;2023-04-24T05:24:35;98812.16;;;14.05;59.18
79129;BME280;68529;43.286;23.360;2023-04-24T05:27:02;98815.84;;;14.18;59.19
79129;BME280;68529;43.286;23.360;2023-04-24T05:29:28;98809.88;;;14.30;59.21
79129;BME280;68529;43.286;23.360;2023-04-24T05:31:55;98819.84;;;14.25;59.46
79129;BME280;68529;43.286;23.360;2023-04-24T05:34:21;98816.00;;;14.30;59.12
79129;BME280;68529;43.286;23.360;2023-04-24T05:36:46;98824.66;;;14.34;59.19
79129;BME280;68529;43.286;23.360;2023-04-24T05:39:13;98825.88;;;14.27;59.34
79129;BME280;68529;43.286;23.360;2023-04-24T05:41:39;98818.25;;;14.38;59.00
79129;BME280;68529;43.286;23.360;2023-04-24T05:44:04;98822.25;;;14.45;58.85
79129;BME280;68529;43.286;23.360;2023-04-24T05:46:29;98833.41;;;14.50;58.49
79129;BME280;68529;43.286;23.360;2023-04-24T05:48:55;98832.31;;;14.54;58.59
79129;BME280;68529;43.286;23.360;2023-04-24T05:51:20;98816.78;;;14.48;58.21
79129;BME280;68529;43.286;23.360;2023-04-24T05:53:46;98819.59;;;14.45;58.26
79129;BME280;68529;43.286;23.360;2023-04-24T05:56:11;98823.75;;;14.49;58.49
79129;BME280;68529;43.286;23.360;2023-04-24T05:58:37;98835.13;;;14.51;58.43
79129;BME280;68529;43.286;23.360;2023-04-24T06:01:03;98827.25;;;14.49;58.49
79129;BME280;68529;43.286;23.360;2023-04-24T06:03:28;98824.72;;;14.48;58.55
79129;BME280;68529;43.286;23.360;2023-04-24T06:05:54;98823.59;;;14.52;58.33
79129;BME280;68529;43.286;23.360;2023-04-24T06:08:19;98819.34;;;14.49;58.84
79129;BME280;68529;43.286;23.360;2023-04-24T06:10:45;98821.22;;;14.47;58.43
79129;BME280;68529;43.286;23.360;2023-04-24T06:13:11;98827.97;;;14.37;58.87
79129;BME280;68529;43.286;23.360;2023-04-24T06:15:37;98837.19;;;14.46;58.80
79129;BME280;68529;43.286;23.360;2023-04-24T06:18:03;98824.38;;;14.38;59.19
79129;BME280;68529;43.286;23.360;2023-04-24T06:20:29;98831.28;;;14.41;59.25
79129;BME280;68529;43.286;23.360;2023-04-24T06:22:54;98827.25;;;14.49;59.21
79129;BME280;68529;43.286;23.360;2023-04-24T06:25:19;98823.69;;;14.50;58.62
79129;BME280;68529;43.286;23.360;2023-04-24T06:27:45;98837.66;;;14.52;58.84
79129;BME280;68529;43.286;23.360;2023-04-24T06:30:11;98837.50;;;14.55;58.78
79129;BME280;68529;43.286;23.360;2023-04-24T06:32:36;98840.66;;;14.62;58.89
79129;BME280;68529;43.286;23.360;2023-04-24T06:35:02;98829.63;;;14.70;58.84
79129;BME280;68529;43.286;23.360;2023-04-24T06:37:28;98829.47;;;14.73;58.79
79129;BME280;68529;43.286;23.360;2023-04-24T06:39:54;98826.53;;;14.77;58.84
79129;BME280;68529;43.286;23.360;2023-04-24T06:42:20;98819.63;;;14.75;58.83
79129;BME280;68529;43.286;23.360;2023-04-24T06:44:49;98828.41;;;14.75;59.04
79129;BME280;68529;43.286;23.360;2023-04-24T06:47:15;98824.84;;;14.76;58.64
79129;BME280;68529;43.286;23.360;2023-04-24T06:49:41;98826.50;;;14.47;59.12
79129;BME280;68529;43.286;23.360;2023-04-24T06:52:06;98823.72;;;14.35;59.24
79129;BME280;68529;43.286;23.360;2023-04-24T06:54:32;98823.53;;;14.38;58.95
79129;BME280;68529;43.286;23.360;2023-04-24T06:56:58;98812.44;;;14.47;58.95
79129;BME280;68529;43.286;23.360;2023-04-24T06:59:24;98816.72;;;14.34;59.02
79129;BME280;68529;43.286;23.360;2023-04-24T07:01:50;98828.81;;;14.53;58.76
79129;BME280;68529;43.286;23.360;2023-04-24T07:04:16;98827.31;;;14.79;58.65
79129;BME280;68529;43.286;23.360;2023-04-24T07:06:42;98836.63;;;15.00;58.10
79129;BME280;68529;43.286;23.360;2023-04-24T07:09:08;98852.66;;;15.27;58.19
79129;BME280;68529;43.286;23.360;2023-04-24T07:11:34;98846.97;;;15.49;57.56
79129;BME280;68529;43.286;23.360;2023-04-24T07:14:00;98843.94;;;15.69;57.78
79129;BME280;68529;43.286;23.360;2023-04-24T07:16:25;98834.88;;;15.87;57.17
79129;BME280;68529;43.286;23.360;2023-04-24T07:18:52;98838.56;;;15.99;56.57
79129;BME280;68529;43.286;23.360;2023-04-24T07:21:17;98839.13;;;16.04;56.60
79129;BME280;68529;43.286;23.360;2023-04-24T07:23:42;98851.97;;;16.10;55.98
79129;BME280;68529;43.286;23.360;2023-04-24T07:26:08;98852.72;;;16.12;55.92
79129;BME280;68529;43.286;23.360;2023-04-24T07:28:33;98846.75;;;16.22;56.02
79129;BME280;68529;43.286;23.360;2023-04-24T07:30:58;98849.53;;;16.48;55.99
79129;BME280;68529;43.286;23.360;2023-04-24T07:33:25;98831.50;;;16.67;55.50
79129;BME280;68529;43.286;23.360;2023-04-24T07:35:51;98841.25;;;16.93;55.17
79129;BME280;68529;43.286;23.360;2023-04-24T07:38:17;98840.25;;;17.08;54.92
79129;BME280;68529;43.286;23.360;2023-04-24T07:40:46;98844.09;;;16.90;54.87
79129;BME280;68529;43.286;23.360;2023-04-24T07:43:11;98841.44;;;16.77;54.61
79129;BME280;68529;43.286;23.360;2023-04-24T07:45:36;98843.16;;;16.64;54.60
79129;BME280;68529;43.286;23.360;2023-04-24T07:48:03;98849.91;;;16.42;55.13
79129;BME280;68529;43.286;23.360;2023-04-24T07:50:28;98855.84;;;16.33;55.26
79129;BME280;68529;43.286;23.360;2023-04-24T07:52:54;98842.81;;;16.15;55.25
79129;BME280;68529;43.286;23.360;2023-04-24T07:55:19;98844.34;;;15.91;55.88
79129;BME280;68529;43.286;23.360;2023-04-24T07:57:45;98838.88;;;15.66;56.94
79129;BME280;68529;43.286;23.360;2023-04-24T08:00:11;98823.31;;;15.46;57.71
79129;BME280;68529;43.286;23.360;2023-04-24T08:02:36;98807.88;;;15.24;58.83
79129;BME280;68529;43.286;23.360;2023-04-24T08:05:02;98817.44;;;15.27;58.93
79129;BME280;68529;43.286;23.360;2023-04-24T08:07:28;98824.09;;;15.48;58.92
79129;BME280;68529;43.286;23.360;2023-04-24T08:09:54;98820.72;;;15.74;59.47
79129;BME280;68529;43.286;23.360;2023-04-24T08:12:20;98807.31;;;16.04;59.75
79129;BME280;68529;43.286;23.360;2023-04-24T08:14:45;98800.91;;;16.35;59.56
79129;BME280;68529;43.286;23.360;2023-04-24T08:17:10;98792.19;;;16.73;59.10
79129;BME280;68529;43.286;23.360;2023-04-24T08:19:36;98783.53;;;17.09;58.54
79129;BME280;68529;43.286;23.360;2023-04-24T08:22:01;98783.66;;;17.45;56.92
79129;BME280;68529;43.286;23.360;2023-04-24T08:24:29;98786.75;;;17.65;56.56
79129;BME280;68529;43.286;23.360;2023-04-24T08:26:54;98780.69;;;17.88;56.14
79129;BME280;68529;43.286;23.360;2023-04-24T08:29:21;98776.03;;;18.15;55.80
79129;BME280;68529;43.286;23.360;2023-04-24T08:31:47;98771.56;;;18.16;56.18
79129;BME280;68529;43.286;23.360;2023-04-24T08:34:12;98772.31;;;18.41;55.68
79129;BME280;68529;43.286;23.360;2023-04-24T08:36:38;98766.59;;;18.35;55.81
79129;BME280;68529;43.286;23.360;2023-04-24T08:39:05;98764.56;;;18.62;54.85
79129;BME280;68529;43.286;23.360;2023-04-24T08:41:34;98759.63;;;18.92;54.49
79129;BME280;68529;43.286;23.360;2023-04-24T08:44:01;98754.44;;;19.02;54.42
79129;BME280;68529;43.286;23.360;2023-04-24T08:46:27;98753.91;;;19.21;53.64
79129;BME280;68529;43.286;23.360;2023-04-24T08:48:52;98756.44;;;19.22;53.51
79129;BME280;68529;43.286;23.360;2023-04-24T08:51:18;98763.13;;;19.39;52.96
79129;BME280;68529;43.286;23.360;2023-04-24T08:53:46;98757.44;;;19.43;52.14
79129;BME280;68529;43.286;23.360;2023-04-24T08:56:11;98752.25;;;19.53;51.49
79129;BME280;68529;43.286;23.360;2023-04-24T08:58:37;98747.28;;;19.82;52.19
79129;BME280;68529;43.286;23.360;2023-04-24T09:01:04;98739.00;;;20.18;52.96
79129;BME280;68529;43.286;23.360;2023-04-24T09:03:31;98735.41;;;20.51;51.84
79129;BME280;68529;43.286;23.360;2023-04-24T09:05:57;98739.03;;;20.81;51.27
79129;BME280;68529;43.286;23.360;2023-04-24T09:08:24;98730.25;;;20.90;50.47
79129;BME280;68529;43.286;23.360;2023-04-24T09:10:50;98729.25;;;20.91;50.88
79129;BME280;68529;43.286;23.360;2023-04-24T09:13:15;98723.81;;;21.14;50.76
79129;BME280;68529;43.286;23.360;2023-04-24T09:15:41;98724.03;;;21.52;49.83
79129;BME280;68529;43.286;23.360;2023-04-24T09:18:07;98720.53;;;21.61;50.07
79129;BME280;68529;43.286;23.360;2023-04-24T09:20:33;98727.75;;;21.40;48.50
79129;BME280;68529;43.286;23.360;2023-04-24T09:23:00;98726.88;;;21.09;49.79
79129;BME280;68529;43.286;23.360;2023-04-24T09:25:32;98719.50;;;21.53;48.11
79129;BME280;68529;43.286;23.360;2023-04-24T09:28:03;98710.78;;;21.51;46.49
79129;BME280;68529;43.286;23.360;2023-04-24T09:30:29;98704.16;;;21.85;47.27
79129;BME280;68529;43.286;23.360;2023-04-24T09:33:14;98701.75;;;22.22;46.73
79129;BME280;68529;43.286;23.360;2023-04-24T09:35:50;98697.25;;;22.41;46.80
79129;BME280;68529;43.286;23.360;2023-04-24T09:38:17;98706.59;;;22.66;47.07
79129;BME280;68529;43.286;23.360;2023-04-24T09:40:42;98704.88;;;22.94;45.49
79129;BME280;68529;43.286;23.360;2023-04-24T09:43:11;98706.69;;;23.03;46.11
79129;BME280;68529;43.286;23.360;2023-04-24T09:45:38;98702.84;;;23.15;43.99
79129;BME280;68529;43.286;23.360;2023-04-24T09:48:04;98699.00;;;23.27;43.94
79129;BME280;68529;43.286;23.360;2023-04-24T09:50:31;98699.66;;;22.73;45.28
79129;BME280;68529;43.286;23.360;2023-04-24T09:52:59;98703.88;;;22.47;46.06
79129;BME280;68529;43.286;23.360;2023-04-24T09:55:26;98687.94;;;22.45;45.75
79129;BME280;68529;43.286;23.360;2023-04-24T09:58:01;98690.56;;;23.12;45.62
79129;BME280;68529;43.286;23.360;2023-04-24T10:00:32;98687.59;;;23.15;45.57
79129;BME280;68529;43.286;23.360;2023-04-24T10:03:02;98694.88;;;22.77;45.50
79129;BME280;68529;43.286;23.360;2023-04-24T10:08:00;98683.19;;;23.34;44.69
79129;BME280;68529;43.286;23.360;2023-04-24T10:10:25;98675.41;;;23.50;43.84
79129;BME280;68529;43.286;23.360;2023-04-24T10:12:51;98682.03;;;23.46;44.55
79129;BME280;68529;43.286;23.360;2023-04-24T10:15:18;98665.47;;;23.60;44.27
79129;BME280;68529;43.286;23.360;2023-04-24T10:17:48;98668.84;;;23.15;43.64
79129;BME280;68529;43.286;23.360;2023-04-24T10:20:18;98664.00;;;22.82;43.89
79129;BME280;68529;43.286;23.360;2023-04-24T10:22:46;98663.44;;;22.79;45.19
79129;BME280;68529;43.286;23.360;2023-04-24T10:25:16;98661.47;;;22.52;44.22
79129;BME280;68529;43.286;23.360;2023-04-24T10:27:43;98659.75;;;22.22;44.85
79129;BME280;68529;43.286;23.360;2023-04-24T10:30:09;98657.66;;;22.35;44.99
79129;BME280;68529;43.286;23.360;2023-04-24T10:32:36;98648.09;;;22.71;44.58
79129;BME280;68529;43.286;23.360;2023-04-24T10:35:02;98654.84;;;22.56;44.59
79129;BME280;68529;43.286;23.360;2023-04-24T10:37:27;98657.53;;;22.46;44.03
79129;BME280;68529;43.286;23.360;2023-04-24T10:39:54;98655.28;;;22.32;43.27
79129;BME280;68529;43.286;23.360;2023-04-24T10:42:21;98658.94;;;22.22;42.94
79129;BME280;68529;43.286;23.360;2023-04-24T10:44:47;98656.94;;;22.04;41.67
79129;BME280;68529;43.286;23.360;2023-04-24T10:47:14;98654.13;;;22.06;41.83
79129;BME280;68529;43.286;23.360;2023-04-24T10:49:39;98655.81;;;22.07;41.83
79129;BME280;68529;43.286;23.360;2023-04-24T10:52:05;98649.34;;;22.10;42.07
79129;BME280;68529;43.286;23.360;2023-04-24T10:54:36;98655.84;;;22.26;41.59
79129;BME280;68529;43.286;23.360;2023-04-24T10:59:50;98641.75;;;23.28;40.71
79129;BME280;68529;43.286;23.360;2023-04-24T11:02:16;98642.47;;;23.20;41.40
79129;BME280;68529;43.286;23.360;2023-04-24T11:04:43;98639.44;;;23.06;41.23
79129;BME280;68529;43.286;23.360;2023-04-24T11:07:09;98642.97;;;22.97;41.61
79129;BME280;68529;43.286;23.360;2023-04-24T11:09:35;98641.50;;;23.12;42.37
79129;BME280;68529;43.286;23.360;2023-04-24T11:20:00;98630.78;;;23.76;41.42
79129;BME280;68529;43.286;23.360;2023-04-24T11:22:28;98626.28;;;23.76;41.24
79129;BME280;68529;43.286;23.360;2023-04-24T11:24:56;98636.84;;;23.51;43.14
79129;BME280;68529;43.286;23.360;2023-04-24T11:27:22;98638.28;;;23.08;44.32
79129;BME280;68529;43.286;23.360;2023-04-24T11:29:49;98639.22;;;22.80;45.56
79129;BME280;68529;43.286;23.360;2023-04-24T11:32:33;98649.63;;;22.64;45.51
79129;BME280;68529;43.286;23.360;2023-04-24T11:35:07;98641.06;;;22.41;46.04
79129;BME280;68529;43.286;23.360;2023-04-24T11:37:38;98644.72;;;22.21;46.12
79129;BME280;68529;43.286;23.360;2023-04-24T11:40:09;98652.16;;;22.18;47.05
79129;BME280;68529;43.286;23.360;2023-04-24T11:42:35;98645.09;;;22.17;47.21
79129;BME280;68529;43.286;23.360;2023-04-24T11:45:01;98650.91;;;22.02;46.98
79129;BME280;68529;43.286;23.360;2023-04-24T11:47:30;98651.44;;;21.96;47.26
79129;BME280;68529;43.286;23.360;2023-04-24T11:49:58;98644.69;;;22.02;47.59
79129;BME280;68529;43.286;23.360;2023-04-24T11:52:23;98646.13;;;22.35;47.00
79129;BME280;68529;43.286;23.360;2023-04-24T11:54:50;98641.88;;;22.42;46.67
79129;BME280;68529;43.286;23.360;2023-04-24T11:57:16;98637.94;;;22.55;46.17
79129;BME280;68529;43.286;23.360;2023-04-24T11:59:41;98639.50;;;22.58;45.82
79129;BME280;68529;43.286;23.360;2023-04-24T12:02:07;98634.44;;;22.36;46.09
79129;BME280;68529;43.286;23.360;2023-04-24T12:04:39;98636.66;;;22.31;46.61
79129;BME280;68529;43.286;23.360;2023-04-24T12:07:06;98631.03;;;22.15;46.20
79129;BME280;68529;43.286;23.360;2023-04-24T12:09:47;98623.72;;;22.07;46.51
79129;BME280;68529;43.286;23.360;2023-04-24T12:12:17;98625.94;;;21.92;46.47
79129;BME280;68529;43.286;23.360;2023-04-24T12:14:56;98627.16;;;21.79;46.31
79129;BME280;68529;43.286;23.360;2023-04-24T12:17:31;98630.47;;;22.21;45.70
79129;BME280;68529;43.286;23.360;2023-04-24T12:20:07;98633.59;;;22.35;45.20
79129;BME280;68529;43.286;23.360;2023-04-24T12:22:46;98623.84;;;22.63;45.79
79129;BME280;68529;43.286;23.360;2023-04-24T12:25:16;98619.22;;;22.75;45.00
79129;BME280;68529;43.286;23.360;2023-04-24T12:27:41;98613.28;;;22.81;45.22
79129;BME280;68529;43.286;23.360;2023-04-24T12:30:12;98611.84;;;22.86;45.31
79129;BME280;68529;43.286;23.360;2023-04-24T12:32:45;98603.94;;;22.85;44.86
79129;BME280;68529;43.286;23.360;2023-04-24T12:35:11;98605.06;;;22.92;44.18
79129;BME280;68529;43.286;23.360;2023-04-24T12:37:36;98600.75;;;22.72;42.41
79129;BME280;68529;43.286;23.360;2023-04-24T12:40:06;98611.19;;;22.65;44.23
79129;BME280;68529;43.286;23.360;2023-04-24T12:42:32;98604.56;;;22.69;43.70
79129;BME280;68529;43.286;23.360;2023-04-24T12:45:03;98588.03;;;22.83;41.38
79129;BME280;68529;43.286;23.360;2023-04-24T12:47:30;98580.81;;;22.93;42.14
79129;BME280;68529;43.286;23.360;2023-04-24T12:49:55;98571.91;;;23.02;43.70
79129;BME280;68529;43.286;23.360;2023-04-24T12:52:27;98575.13;;;23.06;44.13
79129;BME280;68529;43.286;23.360;2023-04-24T12:54:54;98566.53;;;23.02;44.15
79129;BME280;68529;43.286;23.360;2023-04-24T12:57:21;98558.41;;;22.94;44.87
79129;BME280;68529;43.286;23.360;2023-04-24T12:59:46;98570.28;;;22.82;44.88